sensor_id;sensor_type;location;lat;lon;timestamp;P1;durP1;ratioP1;P2;durP2;ratioP2
45065;SDS011;30830;53.704;10.004;2024-02-14T00:00:05;5.60;;;2.50;;
45065;SDS011;30830;53.704;10.004;2024-02-14T00:02:35;2.20;;;2.00;;
45065;SDS011;30830;53.704;10.004;2024-02-14T00:05:01;2.42;;;1.75;;
45065;SDS011;30830;53.704;10.004;2024-02-14T00:07:28;5.00;;;2.10;;
45065;SDS011;30830;53.704;10.004;2024-02-14T00:09:53;7.70;;;2.92;;
45065;SDS011;30830;53.704;10.004;2024-02-14T00:12:19;2.38;;;1.98;;
45065;SDS011;30830;53.704;10.004;2024-02-14T00:14:45;3.25;;;2.00;;
45065;SDS011;30830;53.704;10.004;2024-02-14T00:17:11;4.50;;;1.90;;
45065;SDS011;30830;53.704;10.004;2024-02-14T00:19:37;3.35;;;2.40;;
45065;SDS011;30830;53.704;10.004;2024-02-14T00:22:03;5.60;;;2.40;;
45065;SDS011;30830;53.704;10.004;2024-02-14T00:24:28;3.88;;;2.65;;
45065;SDS011;30830;53.704;10.004;2024-02-14T00:26:54;6.57;;;2.58;;
45065;SDS011;30830;53.704;10.004;2024-02-14T00:29:21;4.03;;;2.65;;
45065;SDS011;30830;53.704;10.004;2024-02-14T00:31:48;7.38;;;2.92;;
45065;SDS011;30830;53.704;10.004;2024-02-14T00:34:13;3.17;;;2.30;;
45065;SDS011;30830;53.704;10.004;2024-02-14T00:36:39;2.38;;;1.77;;
45065;SDS011;30830;53.704;10.004;2024-02-14T00:39:04;3.63;;;1.88;;
45065;SDS011;30830;53.704;10.004;2024-02-14T00:41:33;5.13;;;2.42;;
45065;SDS011;30830;53.704;10.004;2024-02-14T00:44:00;2.97;;;1.90;;
45065;SDS011;30830;53.704;10.004;2024-02-14T00:46:26;5.20;;;2.40;;
45065;SDS011;30830;53.704;10.004;2024-02-14T00:48:52;5.75;;;1.90;;
45065;SDS011;30830;53.704;10.004;2024-02-14T00:51:19;3.88;;;1.90;;
45065;SDS011;30830;53.704;10.004;2024-02-14T00:53:45;5.03;;;1.75;;
45065;SDS011;30830;53.704;10.004;2024-02-14T00:56:10;2.25;;;2.05;;
45065;SDS011;30830;53.704;10.004;2024-02-14T00:58:36;3.47;;;1.80;;
45065;SDS011;30830;53.704;10.004;2024-02-14T01:01:02;3.17;;;2.47;;
45065;SDS011;30830;53.704;10.004;2024-02-14T01:03:28;3.28;;;2.00;;
45065;SDS011;30830;53.704;10.004;2024-02-14T01:05:53;3.08;;;2.22;;
45065;SDS011;30830;53.704;10.004;2024-02-14T01:08:20;3.10;;;2.10;;
45065;SDS011;30830;53.704;10.004;2024-02-14T01:10:45;3.47;;;2.53;;
45065;SDS011;30830;53.704;10.004;2024-02-14T01:13:11;3.70;;;2.10;;
45065;SDS011;30830;53.704;10.004;2024-02-14T01:15:37;3.38;;;2.38;;
45065;SDS011;30830;53.704;10.004;2024-02-14T01:18:03;5.28;;;2.67;;
45065;SDS011;30830;53.704;10.004;2024-02-14T01:20:29;2.83;;;2.10;;
45065;SDS011;30830;53.704;10.004;2024-02-14T01:22:54;2.88;;;2.20;;
45065;SDS011;30830;53.704;10.004;2024-02-14T01:25:20;3.45;;;2.35;;
45065;SDS011;30830;53.704;10.004;2024-02-14T01:27:46;3.83;;;2.38;;
45065;SDS011;30830;53.704;10.004;2024-02-14T01:30:13;4.90;;;2.20;;
45065;SDS011;30830;53.704;10.004;2024-02-14T01:32:39;3.85;;;2.15;;
45065;SDS011;30830;53.704;10.004;2024-02-14T01:35:05;3.00;;;2.10;;
45065;SDS011;30830;53.704;10.004;2024-02-14T01:37:31;2.63;;;2.03;;
45065;SDS011;30830;53.704;10.004;2024-02-14T01:39:57;1.85;;;1.67;;
45065;SDS011;30830;53.704;10.004;2024-02-14T01:42:22;2.20;;;1.90;;
45065;SDS011;30830;53.704;10.004;2024-02-14T01:44:48;3.53;;;2.17;;
45065;SDS011;30830;53.704;10.004;2024-02-14T01:47:13;4.80;;;2.45;;
45065;SDS011;30830;53.704;10.004;2024-02-14T01:49:39;2.42;;;1.85;;
45065;SDS011;30830;53.704;10.004;2024-02-14T01:52:09;3.92;;;2.30;;
45065;SDS011;30830;53.704;10.004;2024-02-14T01:54:35;4.93;;;2.47;;
45065;SDS011;30830;53.704;10.004;2024-02-14T01:57:01;2.42;;;1.90;;
45065;SDS011;30830;53.704;10.004;2024-02-14T01:59:28;2.88;;;1.90;;
45065;SDS011;30830;53.704;10.004;2024-02-14T02:01:53;2.58;;;2.20;;
45065;SDS011;30830;53.704;10.004;2024-02-14T02:04:19;3.80;;;1.95;;
45065;SDS011;30830;53.704;10.004;2024-02-14T02:06:45;3.28;;;2.05;;
45065;SDS011;30830;53.704;10.004;2024-02-14T02:09:11;3.08;;;2.20;;
45065;SDS011;30830;53.704;10.004;2024-02-14T02:11:46;2.38;;;1.88;;
45065;SDS011;30830;53.704;10.004;2024-02-14T02:14:15;2.50;;;1.98;;
45065;SDS011;30830;53.704;10.004;2024-02-14T02:16:41;2.75;;;2.10;;
45065;SDS011;30830;53.704;10.004;2024-02-14T02:19:07;2.50;;;2.10;;
45065;SDS011;30830;53.704;10.004;2024-02-14T02:21:34;2.60;;;2.08;;
45065;SDS011;30830;53.704;10.004;2024-02-14T02:24:03;2.97;;;1.88;;
45065;SDS011;30830;53.704;10.004;2024-02-14T02:26:29;4.82;;;2.75;;
45065;SDS011;30830;53.704;10.004;2024-02-14T02:28:55;4.13;;;2.00;;
45065;SDS011;30830;53.704;10.004;2024-02-14T02:31:21;4.68;;;2.58;;
45065;SDS011;30830;53.704;10.004;2024-02-14T02:33:47;4.45;;;1.92;;
45065;SDS011;30830;53.704;10.004;2024-02-14T02:36:12;2.70;;;2.10;;
45065;SDS011;30830;53.704;10.004;2024-02-14T02:38:38;5.10;;;2.60;;
45065;SDS011;30830;53.704;10.004;2024-02-14T02:41:04;3.67;;;2.70;;
45065;SDS011;30830;53.704;10.004;2024-02-14T02:43:34;2.28;;;2.05;;
45065;SDS011;30830;53.704;10.004;2024-02-14T02:45:59;2.65;;;1.98;;
45065;SDS011;30830;53.704;10.004;2024-02-14T02:48:26;6.78;;;2.65;;
45065;SDS011;30830;53.704;10.004;2024-02-14T02:50:51;3.83;;;2.60;;
45065;SDS011;30830;53.704;10.004;2024-02-14T02:53:18;3.20;;;2.67;;
45065;SDS011;30830;53.704;10.004;2024-02-14T02:55:43;3.08;;;2.72;;
45065;SDS011;30830;53.704;10.004;2024-02-14T02:58:09;2.83;;;2.55;;
45065;SDS011;30830;53.704;10.004;2024-02-14T03:00:35;3.85;;;2.58;;
45065;SDS011;30830;53.704;10.004;2024-02-14T03:03:01;3.72;;;2.60;;
45065;SDS011;30830;53.704;10.004;2024-02-14T03:05:29;2.58;;;2.38;;
45065;SDS011;30830;53.704;10.004;2024-02-14T03:07:56;3.88;;;2.70;;
45065;SDS011;30830;53.704;10.004;2024-02-14T03:10:23;5.38;;;2.90;;
45065;SDS011;30830;53.704;10.004;2024-02-14T03:12:50;3.97;;;3.15;;
45065;SDS011;30830;53.704;10.004;2024-02-14T03:15:15;3.58;;;2.80;;
45065;SDS011;30830;53.704;10.004;2024-02-14T03:17:41;5.28;;;3.20;;
45065;SDS011;30830;53.704;10.004;2024-02-14T03:20:07;3.28;;;2.83;;
45065;SDS011;30830;53.704;10.004;2024-02-14T03:22:40;4.68;;;3.17;;
45065;SDS011;30830;53.704;10.004;2024-02-14T03:25:12;4.13;;;2.83;;
45065;SDS011;30830;53.704;10.004;2024-02-14T03:27:41;2.67;;;2.47;;
45065;SDS011;30830;53.704;10.004;2024-02-14T03:30:07;6.60;;;2.92;;
45065;SDS011;30830;53.704;10.004;2024-02-14T03:32:33;2.50;;;2.30;;
45065;SDS011;30830;53.704;10.004;2024-02-14T03:34:58;6.60;;;3.30;;
45065;SDS011;30830;53.704;10.004;2024-02-14T03:37:25;4.25;;;3.05;;
45065;SDS011;30830;53.704;10.004;2024-02-14T03:39:51;3.88;;;3.17;;
45065;SDS011;30830;53.704;10.004;2024-02-14T03:42:17;3.58;;;2.58;;
45065;SDS011;30830;53.704;10.004;2024-02-14T03:44:44;3.40;;;2.95;;
45065;SDS011;30830;53.704;10.004;2024-02-14T03:47:10;5.32;;;3.17;;
45065;SDS011;30830;53.704;10.004;2024-02-14T03:49:38;5.00;;;3.17;;
45065;SDS011;30830;53.704;10.004;2024-02-14T03:52:05;5.28;;;2.80;;
45065;SDS011;30830;53.704;10.004;2024-02-14T03:54:35;4.57;;;3.10;;
45065;SDS011;30830;53.704;10.004;2024-02-14T03:57:01;3.72;;;3.17;;
45065;SDS011;30830;53.704;10.004;2024-02-14T03:59:29;4.68;;;2.88;;
45065;SDS011;30830;53.704;10.004;2024-02-14T04:01:54;5.55;;;2.78;;
45065;SDS011;30830;53.704;10.004;2024-02-14T04:04:20;3.97;;;3.10;;
45065;SDS011;30830;53.704;10.004;2024-02-14T04:06:46;3.85;;;2.92;;
45065;SDS011;30830;53.704;10.004;2024-02-14T04:09:12;4.90;;;3.38;;
45065;SDS011;30830;53.704;10.004;2024-02-14T04:11:38;2.88;;;2.60;;
45065;SDS011;30830;53.704;10.004;2024-02-14T04:14:03;3.60;;;2.85;;
45065;SDS011;30830;53.704;10.004;2024-02-14T04:16:29;3.67;;;2.78;;
45065;SDS011;30830;53.704;10.004;2024-02-14T04:18:54;3.55;;;2.65;;
45065;SDS011;30830;53.704;10.004;2024-02-14T04:21:21;6.45;;;2.70;;
45065;SDS011;30830;53.704;10.004;2024-02-14T04:23:46;3.35;;;3.05;;
45065;SDS011;30830;53.704;10.004;2024-02-14T04:26:19;5.82;;;3.28;;
45065;SDS011;30830;53.704;10.004;2024-02-14T04:28:45;6.32;;;3.13;;
45065;SDS011;30830;53.704;10.004;2024-02-14T04:31:11;3.28;;;2.70;;
45065;SDS011;30830;53.704;10.004;2024-02-14T04:33:36;4.35;;;2.70;;
45065;SDS011;30830;53.704;10.004;2024-02-14T04:36:02;4.15;;;2.80;;
45065;SDS011;30830;53.704;10.004;2024-02-14T04:38:28;4.57;;;3.05;;
45065;SDS011;30830;53.704;10.004;2024-02-14T04:40:54;5.22;;;2.90;;
45065;SDS011;30830;53.704;10.004;2024-02-14T04:43:21;3.80;;;3.10;;
45065;SDS011;30830;53.704;10.004;2024-02-14T04:45:47;3.65;;;3.20;;
45065;SDS011;30830;53.704;10.004;2024-02-14T04:48:13;4.85;;;3.00;;
45065;SDS011;30830;53.704;10.004;2024-02-14T04:50:38;3.45;;;2.83;;
45065;SDS011;30830;53.704;10.004;2024-02-14T04:53:04;5.22;;;3.25;;
45065;SDS011;30830;53.704;10.004;2024-02-14T04:55:30;3.65;;;2.95;;
45065;SDS011;30830;53.704;10.004;2024-02-14T04:57:55;4.22;;;3.38;;
45065;SDS011;30830;53.704;10.004;2024-02-14T05:00:21;3.50;;;3.20;;
45065;SDS011;30830;53.704;10.004;2024-02-14T05:02:46;4.20;;;3.28;;
45065;SDS011;30830;53.704;10.004;2024-02-14T05:05:12;4.00;;;3.22;;
45065;SDS011;30830;53.704;10.004;2024-02-14T05:07:38;6.65;;;3.72;;
45065;SDS011;30830;53.704;10.004;2024-02-14T05:10:04;4.38;;;3.00;;
45065;SDS011;30830;53.704;10.004;2024-02-14T05:12:29;4.10;;;2.78;;
45065;SDS011;30830;53.704;10.004;2024-02-14T05:14:55;3.97;;;3.58;;
45065;SDS011;30830;53.704;10.004;2024-02-14T05:17:21;4.00;;;3.35;;
45065;SDS011;30830;53.704;10.004;2024-02-14T05:19:46;4.13;;;3.47;;
45065;SDS011;30830;53.704;10.004;2024-02-14T05:22:12;5.07;;;3.58;;
45065;SDS011;30830;53.704;10.004;2024-02-14T05:24:37;4.47;;;3.47;;
45065;SDS011;30830;53.704;10.004;2024-02-14T05:27:03;5.22;;;3.42;;
45065;SDS011;30830;53.704;10.004;2024-02-14T05:29:30;4.38;;;3.58;;
45065;SDS011;30830;53.704;10.004;2024-02-14T05:31:55;5.57;;;3.63;;
45065;SDS011;30830;53.704;10.004;2024-02-14T05:34:21;4.55;;;3.63;;
45065;SDS011;30830;53.704;10.004;2024-02-14T05:36:47;6.45;;;3.80;;
45065;SDS011;30830;53.704;10.004;2024-02-14T05:39:13;4.43;;;3.85;;
45065;SDS011;30830;53.704;10.004;2024-02-14T05:41:42;5.25;;;3.80;;
45065;SDS011;30830;53.704;10.004;2024-02-14T05:44:08;4.07;;;3.47;;
45065;SDS011;30830;53.704;10.004;2024-02-14T05:46:33;6.57;;;3.85;;
45065;SDS011;30830;53.704;10.004;2024-02-14T05:48:59;3.95;;;3.58;;
45065;SDS011;30830;53.704;10.004;2024-02-14T05:51:24;4.93;;;4.13;;
45065;SDS011;30830;53.704;10.004;2024-02-14T05:53:50;6.30;;;3.83;;
45065;SDS011;30830;53.704;10.004;2024-02-14T05:56:16;5.80;;;4.55;;
45065;SDS011;30830;53.704;10.004;2024-02-14T05:58:41;4.72;;;3.72;;
45065;SDS011;30830;53.704;10.004;2024-02-14T06:01:07;5.18;;;4.22;;
45065;SDS011;30830;53.704;10.004;2024-02-14T06:03:33;4.15;;;3.72;;
45065;SDS011;30830;53.704;10.004;2024-02-14T06:05:58;5.60;;;4.18;;
45065;SDS011;30830;53.704;10.004;2024-02-14T06:08:24;5.65;;;4.45;;
45065;SDS011;30830;53.704;10.004;2024-02-14T06:10:51;5.25;;;4.75;;
45065;SDS011;30830;53.704;10.004;2024-02-14T06:13:17;4.65;;;4.13;;
45065;SDS011;30830;53.704;10.004;2024-02-14T06:15:42;4.68;;;4.20;;
45065;SDS011;30830;53.704;10.004;2024-02-14T06:18:08;5.03;;;4.55;;
45065;SDS011;30830;53.704;10.004;2024-02-14T06:20:34;5.63;;;4.75;;
45065;SDS011;30830;53.704;10.004;2024-02-14T06:23:00;5.63;;;4.35;;
45065;SDS011;30830;53.704;10.004;2024-02-14T06:25:25;6.60;;;4.45;;
45065;SDS011;30830;53.704;10.004;2024-02-14T06:27:51;8.13;;;4.32;;
45065;SDS011;30830;53.704;10.004;2024-02-14T06:30:19;6.07;;;4.13;;
45065;SDS011;30830;53.704;10.004;2024-02-14T06:32:44;5.63;;;4.20;;
45065;SDS011;30830;53.704;10.004;2024-02-14T06:35:10;4.43;;;4.03;;
45065;SDS011;30830;53.704;10.004;2024-02-14T06:37:36;7.68;;;4.80;;
45065;SDS011;30830;53.704;10.004;2024-02-14T06:40:01;6.60;;;4.75;;
45065;SDS011;30830;53.704;10.004;2024-02-14T06:42:27;7.15;;;4.82;;
45065;SDS011;30830;53.704;10.004;2024-02-14T06:44:53;6.20;;;5.03;;
45065;SDS011;30830;53.704;10.004;2024-02-14T06:47:18;8.80;;;5.30;;
45065;SDS011;30830;53.704;10.004;2024-02-14T06:49:44;5.65;;;5.05;;
45065;SDS011;30830;53.704;10.004;2024-02-14T06:52:09;6.38;;;5.35;;
45065;SDS011;30830;53.704;10.004;2024-02-14T06:54:35;7.75;;;5.35;;
45065;SDS011;30830;53.704;10.004;2024-02-14T06:57:00;6.18;;;5.57;;
45065;SDS011;30830;53.704;10.004;2024-02-14T06:59:26;6.57;;;5.43;;
45065;SDS011;30830;53.704;10.004;2024-02-14T07:01:52;6.32;;;5.18;;
45065;SDS011;30830;53.704;10.004;2024-02-14T07:04:19;6.80;;;5.05;;
45065;SDS011;30830;53.704;10.004;2024-02-14T07:06:50;5.72;;;4.65;;
45065;SDS011;30830;53.704;10.004;2024-02-14T07:09:16;6.93;;;5.18;;
45065;SDS011;30830;53.704;10.004;2024-02-14T07:11:42;7.45;;;5.10;;
45065;SDS011;30830;53.704;10.004;2024-02-14T07:14:08;5.68;;;5.13;;
45065;SDS011;30830;53.704;10.004;2024-02-14T07:16:33;8.98;;;5.47;;
45065;SDS011;30830;53.704;10.004;2024-02-14T07:18:59;6.28;;;5.63;;
45065;SDS011;30830;53.704;10.004;2024-02-14T07:21:24;5.88;;;4.72;;
45065;SDS011;30830;53.704;10.004;2024-02-14T07:23:50;5.85;;;5.18;;
45065;SDS011;30830;53.704;10.004;2024-02-14T07:26:15;6.70;;;5.20;;
45065;SDS011;30830;53.704;10.004;2024-02-14T07:28:41;5.28;;;4.63;;
45065;SDS011;30830;53.704;10.004;2024-02-14T07:31:06;6.75;;;5.32;;
45065;SDS011;30830;53.704;10.004;2024-02-14T07:33:32;5.70;;;4.57;;
45065;SDS011;30830;53.704;10.004;2024-02-14T07:35:57;5.28;;;4.78;;
45065;SDS011;30830;53.704;10.004;2024-02-14T07:38:23;5.43;;;4.70;;
45065;SDS011;30830;53.704;10.004;2024-02-14T07:40:49;5.50;;;4.85;;
45065;SDS011;30830;53.704;10.004;2024-02-14T07:43:17;7.82;;;5.25;;
45065;SDS011;30830;53.704;10.004;2024-02-14T07:45:43;6.75;;;5.10;;
45065;SDS011;30830;53.704;10.004;2024-02-14T07:48:08;4.78;;;4.30;;
45065;SDS011;30830;53.704;10.004;2024-02-14T07:50:34;9.13;;;6.07;;
45065;SDS011;30830;53.704;10.004;2024-02-14T07:53:01;5.95;;;4.70;;
45065;SDS011;30830;53.704;10.004;2024-02-14T07:55:26;5.90;;;4.93;;
45065;SDS011;30830;53.704;10.004;2024-02-14T07:57:52;7.97;;;5.15;;
45065;SDS011;30830;53.704;10.004;2024-02-14T08:00:18;6.40;;;5.30;;
45065;SDS011;30830;53.704;10.004;2024-02-14T08:02:47;7.63;;;5.53;;
45065;SDS011;30830;53.704;10.004;2024-02-14T08:05:14;7.72;;;5.40;;
45065;SDS011;30830;53.704;10.004;2024-02-14T08:07:39;5.95;;;5.35;;
45065;SDS011;30830;53.704;10.004;2024-02-14T08:10:05;6.35;;;4.93;;
45065;SDS011;30830;53.704;10.004;2024-02-14T08:12:31;7.57;;;5.88;;
45065;SDS011;30830;53.704;10.004;2024-02-14T08:14:56;7.22;;;5.93;;
45065;SDS011;30830;53.704;10.004;2024-02-14T08:17:22;6.90;;;5.35;;
45065;SDS011;30830;53.704;10.004;2024-02-14T08:19:47;6.85;;;5.70;;
45065;SDS011;30830;53.704;10.004;2024-02-14T08:22:13;7.45;;;5.80;;
45065;SDS011;30830;53.704;10.004;2024-02-14T08:24:39;7.53;;;6.05;;
45065;SDS011;30830;53.704;10.004;2024-02-14T08:27:04;8.50;;;6.05;;
45065;SDS011;30830;53.704;10.004;2024-02-14T08:29:33;8.80;;;5.88;;
45065;SDS011;30830;53.704;10.004;2024-02-14T08:31:58;8.02;;;6.60;;
45065;SDS011;30830;53.704;10.004;2024-02-14T08:34:24;6.50;;;5.80;;
45065;SDS011;30830;53.704;10.004;2024-02-14T08:36:50;8.30;;;5.82;;
45065;SDS011;30830;53.704;10.004;2024-02-14T08:39:15;6.22;;;5.32;;
45065;SDS011;30830;53.704;10.004;2024-02-14T08:41:43;6.45;;;5.68;;
45065;SDS011;30830;53.704;10.004;2024-02-14T08:44:09;9.25;;;6.07;;
45065;SDS011;30830;53.704;10.004;2024-02-14T08:46:35;8.60;;;5.97;;
45065;SDS011;30830;53.704;10.004;2024-02-14T08:49:01;7.85;;;5.65;;
45065;SDS011;30830;53.704;10.004;2024-02-14T08:51:27;8.38;;;5.78;;
45065;SDS011;30830;53.704;10.004;2024-02-14T08:53:53;6.68;;;5.97;;
45065;SDS011;30830;53.704;10.004;2024-02-14T08:56:20;6.80;;;5.43;;
45065;SDS011;30830;53.704;10.004;2024-02-14T08:58:49;9.38;;;6.88;;
45065;SDS011;30830;53.704;10.004;2024-02-14T09:01:14;17.65;;;11.65;;
45065;SDS011;30830;53.704;10.004;2024-02-14T09:03:41;27.10;;;16.40;;
45065;SDS011;30830;53.704;10.004;2024-02-14T09:06:12;19.65;;;12.50;;
45065;SDS011;30830;53.704;10.004;2024-02-14T09:08:43;10.57;;;7.50;;
45065;SDS011;30830;53.704;10.004;2024-02-14T09:11:09;7.38;;;5.78;;
45065;SDS011;30830;53.704;10.004;2024-02-14T09:13:34;6.93;;;5.63;;
45065;SDS011;30830;53.704;10.004;2024-02-14T09:16:00;7.15;;;5.47;;
45065;SDS011;30830;53.704;10.004;2024-02-14T09:18:26;5.82;;;5.03;;
45065;SDS011;30830;53.704;10.004;2024-02-14T09:20:52;6.47;;;5.43;;
45065;SDS011;30830;53.704;10.004;2024-02-14T09:23:17;6.63;;;5.93;;
45065;SDS011;30830;53.704;10.004;2024-02-14T09:25:47;5.85;;;5.25;;
45065;SDS011;30830;53.704;10.004;2024-02-14T09:28:16;6.50;;;5.53;;
45065;SDS011;30830;53.704;10.004;2024-02-14T09:30:42;5.75;;;4.57;;
45065;SDS011;30830;53.704;10.004;2024-02-14T09:33:07;6.38;;;5.55;;
45065;SDS011;30830;53.704;10.004;2024-02-14T09:35:33;6.82;;;5.03;;
45065;SDS011;30830;53.704;10.004;2024-02-14T09:38:00;7.70;;;5.05;;
45065;SDS011;30830;53.704;10.004;2024-02-14T09:40:26;6.63;;;5.22;;
45065;SDS011;30830;53.704;10.004;2024-02-14T09:42:53;8.00;;;5.47;;
45065;SDS011;30830;53.704;10.004;2024-02-14T09:45:26;7.05;;;5.70;;
45065;SDS011;30830;53.704;10.004;2024-02-14T09:47:52;7.50;;;6.20;;
45065;SDS011;30830;53.704;10.004;2024-02-14T09:50:19;8.65;;;6.15;;
45065;SDS011;30830;53.704;10.004;2024-02-14T09:52:46;7.22;;;5.25;;
45065;SDS011;30830;53.704;10.004;2024-02-14T09:55:14;6.75;;;5.63;;
45065;SDS011;30830;53.704;10.004;2024-02-14T09:57:44;6.65;;;5.38;;
45065;SDS011;30830;53.704;10.004;2024-02-14T10:00:11;5.53;;;4.63;;
45065;SDS011;30830;53.704;10.004;2024-02-14T10:02:41;7.68;;;5.50;;
45065;SDS011;30830;53.704;10.004;2024-02-14T10:05:07;6.07;;;4.72;;
45065;SDS011;30830;53.704;10.004;2024-02-14T10:07:50;6.47;;;4.88;;
45065;SDS011;30830;53.704;10.004;2024-02-14T10:10:16;5.00;;;3.83;;
45065;SDS011;30830;53.704;10.004;2024-02-14T10:12:42;6.10;;;4.22;;
45065;SDS011;30830;53.704;10.004;2024-02-14T10:15:08;4.38;;;3.80;;
45065;SDS011;30830;53.704;10.004;2024-02-14T10:17:34;4.18;;;3.53;;
45065;SDS011;30830;53.704;10.004;2024-02-14T10:20:00;4.15;;;3.75;;
45065;SDS011;30830;53.704;10.004;2024-02-14T10:22:36;3.92;;;3.50;;
45065;SDS011;30830;53.704;10.004;2024-02-14T10:25:03;4.75;;;3.58;;
45065;SDS011;30830;53.704;10.004;2024-02-14T10:27:33;3.92;;;3.53;;
45065;SDS011;30830;53.704;10.004;2024-02-14T10:30:06;4.03;;;3.40;;
45065;SDS011;30830;53.704;10.004;2024-02-14T10:32:34;4.10;;;3.13;;
45065;SDS011;30830;53.704;10.004;2024-02-14T10:35:05;3.95;;;3.33;;
45065;SDS011;30830;53.704;10.004;2024-02-14T10:37:33;3.42;;;3.13;;
45065;SDS011;30830;53.704;10.004;2024-02-14T10:40:03;4.60;;;3.20;;
45065;SDS011;30830;53.704;10.004;2024-02-14T10:42:30;3.67;;;3.30;;
45065;SDS011;30830;53.704;10.004;2024-02-14T10:44:56;3.63;;;3.30;;
45065;SDS011;30830;53.704;10.004;2024-02-14T10:47:23;4.47;;;3.83;;
45065;SDS011;30830;53.704;10.004;2024-02-14T10:49:54;4.57;;;4.13;;
45065;SDS011;30830;53.704;10.004;2024-02-14T10:52:25;4.07;;;3.58;;
45065;SDS011;30830;53.704;10.004;2024-02-14T10:54:54;3.90;;;3.10;;
45065;SDS011;30830;53.704;10.004;2024-02-14T10:57:22;3.65;;;3.13;;
45065;SDS011;30830;53.704;10.004;2024-02-14T10:59:49;4.63;;;3.83;;
45065;SDS011;30830;53.704;10.004;2024-02-14T11:02:18;3.80;;;3.50;;
45065;SDS011;30830;53.704;10.004;2024-02-14T11:04:48;3.70;;;3.25;;
45065;SDS011;30830;53.704;10.004;2024-02-14T11:07:18;3.58;;;3.25;;
45065;SDS011;30830;53.704;10.004;2024-02-14T11:09:45;3.35;;;3.05;;
45065;SDS011;30830;53.704;10.004;2024-02-14T11:12:10;4.72;;;3.67;;
45065;SDS011;30830;53.704;10.004;2024-02-14T11:14:37;3.70;;;3.40;;
45065;SDS011;30830;53.704;10.004;2024-02-14T11:17:04;3.45;;;3.15;;
45065;SDS011;30830;53.704;10.004;2024-02-14T11:19:34;3.03;;;2.70;;
45065;SDS011;30830;53.704;10.004;2024-02-14T11:22:13;3.25;;;2.95;;
45065;SDS011;30830;53.704;10.004;2024-02-14T11:24:45;4.10;;;3.33;;
45065;SDS011;30830;53.704;10.004;2024-02-14T11:27:11;3.55;;;3.10;;
45065;SDS011;30830;53.704;10.004;2024-02-14T11:29:40;3.03;;;2.70;;
45065;SDS011;30830;53.704;10.004;2024-02-14T11:32:15;3.10;;;2.80;;
45065;SDS011;30830;53.704;10.004;2024-02-14T11:34:43;4.47;;;3.20;;
45065;SDS011;30830;53.704;10.004;2024-02-14T11:37:09;3.58;;;3.28;;
45065;SDS011;30830;53.704;10.004;2024-02-14T11:39:34;2.97;;;2.67;;
45065;SDS011;30830;53.704;10.004;2024-02-14T11:42:00;2.88;;;2.58;;
45065;SDS011;30830;53.704;10.004;2024-02-14T11:44:26;2.80;;;2.50;;
45065;SDS011;30830;53.704;10.004;2024-02-14T11:46:52;3.80;;;3.03;;
45065;SDS011;30830;53.704;10.004;2024-02-14T11:49:18;2.72;;;2.50;;
45065;SDS011;30830;53.704;10.004;2024-02-14T11:51:44;2.78;;;2.50;;
45065;SDS011;30830;53.704;10.004;2024-02-14T11:54:10;3.22;;;2.78;;
45065;SDS011;30830;53.704;10.004;2024-02-14T11:56:39;3.95;;;3.10;;
45065;SDS011;30830;53.704;10.004;2024-02-14T11:59:06;4.28;;;3.25;;
45065;SDS011;30830;53.704;10.004;2024-02-14T12:01:33;2.88;;;2.58;;
45065;SDS011;30830;53.704;10.004;2024-02-14T12:04:00;4.10;;;2.97;;
45065;SDS011;30830;53.704;10.004;2024-02-14T12:06:28;3.80;;;3.28;;
45065;SDS011;30830;53.704;10.004;2024-02-14T12:08:57;3.72;;;3.10;;
45065;SDS011;30830;53.704;10.004;2024-02-14T12:11:26;3.28;;;2.97;;
45065;SDS011;30830;53.704;10.004;2024-02-14T12:13:54;3.53;;;2.67;;
45065;SDS011;30830;53.704;10.004;2024-02-14T12:16:19;2.97;;;2.60;;
45065;SDS011;30830;53.704;10.004;2024-02-14T12:18:49;4.25;;;3.20;;
45065;SDS011;30830;53.704;10.004;2024-02-14T12:21:14;4.32;;;3.17;;
45065;SDS011;30830;53.704;10.004;2024-02-14T12:23:40;4.85;;;3.63;;
45065;SDS011;30830;53.704;10.004;2024-02-14T12:26:06;2.88;;;2.65;;
45065;SDS011;30830;53.704;10.004;2024-02-14T12:28:32;3.85;;;2.72;;
45065;SDS011;30830;53.704;10.004;2024-02-14T12:30:57;3.42;;;2.90;;
45065;SDS011;30830;53.704;10.004;2024-02-14T12:33:24;3.10;;;2.80;;
45065;SDS011;30830;53.704;10.004;2024-02-14T12:35:50;3.65;;;2.95;;
45065;SDS011;30830;53.704;10.004;2024-02-14T12:38:19;3.22;;;2.90;;
45065;SDS011;30830;53.704;10.004;2024-02-14T12:40:45;3.40;;;2.70;;
45065;SDS011;30830;53.704;10.004;2024-02-14T12:43:12;6.68;;;2.47;;
45065;SDS011;30830;53.704;10.004;2024-02-14T12:45:39;3.22;;;2.45;;
45065;SDS011;30830;53.704;10.004;2024-02-14T12:48:06;2.58;;;2.38;;
45065;SDS011;30830;53.704;10.004;2024-02-14T12:50:35;3.38;;;2.70;;
45065;SDS011;30830;53.704;10.004;2024-02-14T12:53:05;3.58;;;2.20;;
45065;SDS011;30830;53.704;10.004;2024-02-14T12:55:32;2.28;;;1.95;;
45065;SDS011;30830;53.704;10.004;2024-02-14T12:57:57;2.42;;;2.22;;
45065;SDS011;30830;53.704;10.004;2024-02-14T13:00:23;5.50;;;2.05;;
45065;SDS011;30830;53.704;10.004;2024-02-14T13:02:49;3.03;;;1.73;;
45065;SDS011;30830;53.704;10.004;2024-02-14T13:05:15;2.65;;;2.10;;
45065;SDS011;30830;53.704;10.004;2024-02-14T13:07:42;2.47;;;2.17;;
45065;SDS011;30830;53.704;10.004;2024-02-14T13:10:08;2.15;;;1.83;;
45065;SDS011;30830;53.704;10.004;2024-02-14T13:12:35;2.22;;;2.03;;
45065;SDS011;30830;53.704;10.004;2024-02-14T13:15:02;2.67;;;2.03;;
45065;SDS011;30830;53.704;10.004;2024-02-14T13:17:28;2.10;;;1.88;;
45065;SDS011;30830;53.704;10.004;2024-02-14T13:19:54;2.45;;;2.25;;
45065;SDS011;30830;53.704;10.004;2024-02-14T13:22:19;2.72;;;2.00;;
45065;SDS011;30830;53.704;10.004;2024-02-14T13:24:45;2.53;;;2.00;;
45065;SDS011;30830;53.704;10.004;2024-02-14T13:27:10;4.63;;;3.70;;
45065;SDS011;30830;53.704;10.004;2024-02-14T13:29:36;4.30;;;2.22;;
45065;SDS011;30830;53.704;10.004;2024-02-14T13:32:02;5.80;;;4.05;;
45065;SDS011;30830;53.704;10.004;2024-02-14T13:34:28;10.52;;;6.85;;
45065;SDS011;30830;53.704;10.004;2024-02-14T13:36:54;7.20;;;5.93;;
45065;SDS011;30830;53.704;10.004;2024-02-14T13:39:21;6.63;;;4.68;;
45065;SDS011;30830;53.704;10.004;2024-02-14T13:41:47;6.82;;;4.80;;
45065;SDS011;30830;53.704;10.004;2024-02-14T13:44:13;5.22;;;4.20;;
45065;SDS011;30830;53.704;10.004;2024-02-14T13:46:39;4.68;;;3.75;;
45065;SDS011;30830;53.704;10.004;2024-02-14T13:49:10;11.48;;;9.05;;
45065;SDS011;30830;53.704;10.004;2024-02-14T13:51:36;6.72;;;5.00;;
45065;SDS011;30830;53.704;10.004;2024-02-14T13:54:02;11.15;;;8.55;;
45065;SDS011;30830;53.704;10.004;2024-02-14T13:56:28;17.13;;;11.15;;
45065;SDS011;30830;53.704;10.004;2024-02-14T13:58:54;9.15;;;8.25;;
45065;SDS011;30830;53.704;10.004;2024-02-14T14:01:20;6.30;;;4.65;;
45065;SDS011;30830;53.704;10.004;2024-02-14T14:03:45;9.40;;;7.75;;
45065;SDS011;30830;53.704;10.004;2024-02-14T14:06:12;9.32;;;7.55;;
45065;SDS011;30830;53.704;10.004;2024-02-14T14:08:38;7.85;;;6.28;;
45065;SDS011;30830;53.704;10.004;2024-02-14T14:11:04;12.02;;;8.75;;
45065;SDS011;30830;53.704;10.004;2024-02-14T14:13:30;8.32;;;6.70;;
45065;SDS011;30830;53.704;10.004;2024-02-14T14:15:59;10.15;;;8.88;;
45065;SDS011;30830;53.704;10.004;2024-02-14T14:18:25;9.35;;;8.32;;
45065;SDS011;30830;53.704;10.004;2024-02-14T14:20:51;9.75;;;8.30;;
45065;SDS011;30830;53.704;10.004;2024-02-14T14:23:17;9.38;;;7.95;;
45065;SDS011;30830;53.704;10.004;2024-02-14T14:25:43;6.95;;;6.03;;
45065;SDS011;30830;53.704;10.004;2024-02-14T14:28:09;6.75;;;5.95;;